Time;durP1;ratioP1;P1;durP2;ratioP2;P2;SDS_P1;SDS_P2;PMS_P1;PMS_P2;Temp;Humidity;BMP_temperature;BMP_pressure;BME280_temperature;BME280_humidity;BME280_pressure;Samples;Min_cycle;Max_cycle;Signal;HPM_P1;HPM_P2
2022/12/25 00:02:02;;;;;;;60.37;23.43;;;5.80;99.90;;;;;;5110942;28;20216;-69
2022/12/25 00:04:29;;;;;;;56.67;23.23;;;5.90;99.90;;;;;;5093874;28;20216;-70
2022/12/25 00:06:56;;;;;;;67.60;22.70;;;5.90;99.90;;;;;;5111723;28;20661;-69
2022/12/25 00:09:22;;;;;;;57.40;21.33;;;5.90;99.90;;;;;;5112594;28;20213;-69
2022/12/25 00:11:49;;;;;;;52.27;20.60;;;5.90;99.90;;;;;;5111643;28;20236;-69
2022/12/25 00:14:16;;;;;;;47.07;20.07;;;5.90;99.90;;;;;;5112119;28;20919;-69
2022/12/25 00:16:43;;;;;;;54.60;19.93;;;5.80;99.90;;;;;;5110395;28;20279;-69
2022/12/25 00:19:10;;;;;;;58.63;20.83;;;5.80;99.90;;;;;;5110960;28;20254;-69
2022/12/25 00:21:37;;;;;;;52.07;18.83;;;5.80;99.90;;;;;;5111255;28;20211;-69
2022/12/25 00:24:04;;;;;;;56.93;19.80;;;5.80;99.90;;;;;;5111748;28;20206;-69
2022/12/25 00:26:31;;;;;;;46.87;19.90;;;5.80;99.90;;;;;;5092858;28;20283;-69
2022/12/25 00:28:58;;;;;;;47.13;18.10;;;5.70;99.90;;;;;;5088956;28;20214;-69
2022/12/25 00:31:25;;;;;;;60.53;19.93;;;5.80;99.90;;;;;;5110000;28;20300;-69
2022/12/25 00:33:52;;;;;;;64.07;21.73;;;5.70;99.90;;;;;;5108831;28;20231;-69
2022/12/25 00:36:21;;;;;;;74.70;21.90;;;5.80;99.90;;;;;;5111773;28;20319;-69
2022/12/25 00:38:48;;;;;;;75.20;22.17;;;5.90;99.90;;;;;;5110412;28;20652;-69
2022/12/25 00:42:17;;;;;;;82.53;23.43;;;6.00;99.90;;;;;;5111442;28;20214;-69
2022/12/25 00:44:05;;;;;;;73.90;21.43;;;6.10;99.90;;;;;;5110467;28;20278;-69
2022/12/25 00:46:32;;;;;;;89.87;23.43;;;6.30;99.90;;;;;;5111316;28;20279;-69
2022/12/25 00:48:59;;;;;;;72.17;21.40;;;6.40;99.90;;;;;;5110499;28;20191;-68
2022/12/25 00:51:27;;;;;;;86.33;21.70;;;6.60;99.90;;;;;;5106623;28;20206;-70
2022/12/25 00:53:53;;;;;;;77.07;22.67;;;6.70;99.90;;;;;;5093615;28;20286;-69
2022/12/25 00:56:20;;;;;;;76.50;21.83;;;6.80;99.90;;;;;;5106939;28;20230;-69
2022/12/25 00:58:47;;;;;;;88.10;22.93;;;6.90;99.90;;;;;;5075397;28;20271;-69
2022/12/25 01:01:14;;;;;;;66.97;20.53;;;7.10;99.90;;;;;;5110808;28;20639;-69
2022/12/25 01:03:41;;;;;;;80.63;21.37;;;7.20;99.90;;;;;;5109173;28;20202;-69
2022/12/25 01:06:10;;;;;;;79.27;21.30;;;7.30;99.90;;;;;;5110993;28;20655;-69
2022/12/25 01:10:20;;;;;;;70.63;19.93;;;7.40;99.90;;;;;;5092815;28;20284;-69
2022/12/25 01:11:26;;;;;;;79.23;20.90;;;7.50;99.90;;;;;;5108896;28;20210;-68
2022/12/25 01:13:52;;;;;;;75.63;20.37;;;7.60;99.90;;;;;;5106562;28;20735;-69
2022/12/25 01:16:19;;;;;;;71.47;20.67;;;7.70;99.90;;;;;;5110275;28;20242;-69
2022/12/25 01:18:46;;;;;;;71.83;20.83;;;7.80;99.90;;;;;;5111135;28;20317;-68
2022/12/25 01:21:15;;;;;;;71.00;21.13;;;7.90;99.90;;;;;;5111234;28;20207;-70
2022/12/25 01:23:43;;;;;;;58.33;19.80;;;8.00;99.90;;;;;;5106970;28;20238;-69
2022/12/25 01:26:11;;;;;;;68.17;20.30;;;8.10;99.90;;;;;;5109922;28;20217;-69
2022/12/25 01:28:38;;;;;;;72.53;21.93;;;8.10;99.90;;;;;;5110434;28;20626;-69
2022/12/25 01:31:09;;;;;;;67.93;20.97;;;8.20;99.90;;;;;;5092688;28;20646;-69
2022/12/25 01:33:37;;;;;;;65.47;20.37;;;8.30;99.90;;;;;;5109327;28;20210;-69
2022/12/25 01:36:15;;;;;;;72.30;23.30;;;8.40;99.90;;;;;;5088686;28;20273;-69
2022/12/25 01:38:43;;;;;;;59.17;18.93;;;8.50;99.90;;;;;;5110640;28;20240;-69
2022/12/25 01:41:12;;;;;;;61.87;22.03;;;8.60;99.90;;;;;;5109984;28;20229;-69
2022/12/25 01:43:55;;;;;;;74.43;20.40;;;8.60;99.90;;;;;;5109604;28;20202;-68
2022/12/25 01:46:22;;;;;;;56.73;18.27;;;8.70;99.90;;;;;;5107635;28;20294;-68
2022/12/25 01:48:50;;;;;;;54.93;19.53;;;8.70;99.90;;;;;;5109806;28;20600;-69
2022/12/25 01:51:32;;;;;;;62.40;19.50;;;8.80;99.90;;;;;;5071880;28;20217;-68
2022/12/25 01:54:04;;;;;;;62.77;19.47;;;8.90;99.90;;;;;;5085354;28;20195;-68
2022/12/25 01:56:32;;;;;;;65.00;20.13;;;8.90;99.90;;;;;;5089756;28;20710;-68
2022/12/25 01:59:01;;;;;;;65.03;20.03;;;8.90;99.90;;;;;;5087523;28;20236;-68
2022/12/25 02:01:28;;;;;;;57.40;19.37;;;8.90;99.90;;;;;;5085417;28;20255;-69
2022/12/25 02:04:03;;;;;;;54.33;20.97;;;9.00;99.90;;;;;;5089085;28;20248;-69
2022/12/25 02:06:30;;;;;;;66.10;20.37;;;9.00;99.90;;;;;;5090110;28;20203;-68
2022/12/25 02:08:58;;;;;;;60.50;19.27;;;9.10;99.90;;;;;;5062121;28;20212;-68
2022/12/25 02:14:10;;;;;;;58.77;19.40;;;9.10;99.90;;;;;;5089287;28;20191;-69
2022/12/25 02:16:41;;;;;;;55.20;18.20;;;9.10;99.90;;;;;;5090130;28;20327;-69
2022/12/25 02:19:38;;;;;;;51.93;19.07;;;9.10;99.90;;;;;;5089212;28;20203;-69
2022/12/25 02:22:40;;;;;;;54.03;19.03;;;9.20;99.90;;;;;;5089884;28;20282;-69
2022/12/25 02:25:44;;;;;;;63.33;20.30;;;9.20;99.90;;;;;;5027183;28;20283;-69
2022/12/25 02:28:26;;;;;;;56.90;19.53;;;9.20;99.90;;;;;;5089676;28;20203;-68
2022/12/25 02:31:11;;;;;;;52.83;18.80;;;9.20;99.90;;;;;;5086287;28;20294;-69
2022/12/25 02:34:03;;;;;;;45.27;18.37;;;9.30;99.90;;;;;;5088886;28;20287;-69
2022/12/25 02:36:59;;;;;;;51.50;18.50;;;9.30;99.90;;;;;;5086383;28;20231;-70
2022/12/25 03:08:16;;;;;;;56.00;18.10;;;9.00;99.90;;;;;;5089802;28;20206;-68
2022/12/25 03:13:38;;;;;;;54.47;17.63;;;9.00;99.90;;;;;;5091828;28;20209;-69
2022/12/25 03:18:54;;;;;;;64.33;20.53;;;9.00;99.90;;;;;;5091974;28;20397;-69
2022/12/25 03:26:55;;;;;;;76.57;22.47;;;9.00;99.90;;;;;;5090399;28;20214;-69
2022/12/25 03:32:25;;;;;;;53.50;20.70;;;8.90;99.90;;;;;;5090945;28;20208;-68
2022/12/25 03:35:24;;;;;;;65.40;21.07;;;9.00;99.90;;;;;;5085821;28;20302;-69
2022/12/25 04:37:00;;;;;;;53.47;20.03;;;9.40;99.90;;;;;;5099474;28;20230;-67
2022/12/25 04:39:26;;;;;;;48.00;20.40;;;9.50;99.90;;;;;;5100092;28;20213;-68
2022/12/25 04:41:53;;;;;;;48.57;19.43;;;9.50;99.90;;;;;;5096421;28;20568;-68
2022/12/25 04:44:20;;;;;;;49.13;19.83;;;9.50;99.90;;;;;;5101890;28;20219;-67
2022/12/25 04:46:47;;;;;;;41.47;18.40;;;9.50;99.90;;;;;;5099137;28;20276;-69
2022/12/25 04:49:13;;;;;;;42.87;17.97;;;9.50;99.90;;;;;;5096966;28;20231;-69
2022/12/25 04:51:40;;;;;;;51.23;19.57;;;9.60;99.90;;;;;;5087897;28;20211;-69
2022/12/25 04:54:07;;;;;;;42.17;17.03;;;9.60;99.90;;;;;;5109497;28;20499;-68
2022/12/25 04:56:34;;;;;;;41.97;17.53;;;9.60;99.90;;;;;;5111211;28;20195;-68
2022/12/25 04:59:07;;;;;;;37.97;15.73;;;9.60;99.90;;;;;;5107499;28;20294;-69
2022/12/25 05:01:34;;;;;;;39.90;15.20;;;9.60;99.90;;;;;;5109412;28;20250;-69
2022/12/25 05:04:01;;;;;;;33.93;14.87;;;9.60;99.90;;;;;;5105446;28;20207;-69
2022/12/25 05:06:28;;;;;;;35.47;14.07;;;9.60;99.90;;;;;;5110523;28;20290;-68
2022/12/25 05:08:55;;;;;;;28.97;13.47;;;9.60;99.90;;;;;;5109962;28;20309;-68
2022/12/25 05:11:22;;;;;;;36.30;13.70;;;9.60;99.90;;;;;;5093872;28;20229;-69
2022/12/25 05:13:48;;;;;;;33.43;13.13;;;9.60;99.90;;;;;;5109393;28;20229;-68
2022/12/25 05:16:17;;;;;;;34.27;12.87;;;9.60;99.90;;;;;;5109159;28;20242;-69
2022/12/25 05:18:46;;;;;;;30.73;12.17;;;9.60;99.90;;;;;;5092858;28;20223;-69
2022/12/25 05:21:13;;;;;;;26.83;11.60;;;9.60;99.90;;;;;;5093143;28;20197;-69
2022/12/25 05:23:47;;;;;;;29.07;11.87;;;9.60;99.90;;;;;;5107789;28;20278;-69
2022/12/25 05:26:16;;;;;;;33.53;14.20;;;9.60;99.90;;;;;;5110828;28;20208;-69
2022/12/25 05:28:43;;;;;;;37.17;14.77;;;9.50;99.90;;;;;;5110970;28;20313;-69
2022/12/25 05:31:10;;;;;;;37.73;16.80;;;9.50;99.90;;;;;;5092178;28;20310;-68
2022/12/25 05:33:36;;;;;;;46.17;17.00;;;9.40;99.90;;;;;;5106886;28;20203;-68
2022/12/25 05:36:05;;;;;;;40.73;16.10;;;9.40;99.90;;;;;;5105065;28;20219;-68
2022/12/25 05:38:32;;;;;;;38.77;15.57;;;9.30;99.90;;;;;;5105603;28;20306;-68
2022/12/25 05:40:59;;;;;;;41.13;16.77;;;9.20;99.90;;;;;;5110999;28;20213;-68
2022/12/25 05:43:27;;;;;;;42.73;16.23;;;9.20;99.90;;;;;;5110152;28;20289;-68
2022/12/25 05:45:54;;;;;;;32.93;14.57;;;9.10;99.90;;;;;;5108121;28;20282;-71
2022/12/25 05:48:21;;;;;;;44.67;15.30;;;9.10;99.90;;;;;;5092751;28;20286;-69
2022/12/25 05:50:48;;;;;;;36.83;15.97;;;9.00;99.90;;;;;;5090966;28;20234;-69
2022/12/25 05:53:15;;;;;;;40.40;14.57;;;9.00;99.90;;;;;;5109012;28;20202;-69
2022/12/25 05:55:42;;;;;;;31.80;15.30;;;8.90;99.90;;;;;;5104872;28;20195;-69
2022/12/25 05:58:11;;;;;;;33.60;14.67;;;8.90;99.90;;;;;;5110497;28;20219;-68
2022/12/25 06:00:39;;;;;;;36.63;14.47;;;8.80;99.90;;;;;;5090814;28;20202;-68
2022/12/25 06:03:05;;;;;;;42.43;13.73;;;8.80;99.90;;;;;;5110714;28;20236;-68
2022/12/25 06:05:32;;;;;;;41.47;14.53;;;8.80;99.90;;;;;;5110846;28;20286;-68
2022/12/25 06:07:59;;;;;;;39.33;14.00;;;8.80;99.90;;;;;;5107241;28;20729;-69
2022/12/25 06:10:26;;;;;;;34.23;13.37;;;8.70;99.90;;;;;;5110596;28;20207;-68
2022/12/25 06:12:53;;;;;;;32.67;13.70;;;8.70;99.90;;;;;;5105966;28;20301;-67
2022/12/25 06:15:20;;;;;;;35.43;13.30;;;8.70;99.90;;;;;;5085514;28;20202;-68
2022/12/25 06:17:47;;;;;;;38.60;13.60;;;8.70;99.90;;;;;;5108093;28;20223;-68
2022/12/25 06:20:14;;;;;;;33.80;12.87;;;8.70;99.90;;;;;;5109159;28;20641;-68
2022/12/25 06:22:41;;;;;;;32.67;13.07;;;8.70;99.90;;;;;;5110061;28;20206;-68
2022/12/25 06:25:08;;;;;;;28.37;12.97;;;8.70;99.90;;;;;;5109093;28;20297;-68
2022/12/25 06:27:35;;;;;;;30.50;13.07;;;8.70;99.90;;;;;;5109806;28;20206;-68
2022/12/25 06:30:03;;;;;;;31.30;12.77;;;8.70;99.90;;;;;;5109317;28;20702;-68
2022/12/25 06:32:30;;;;;;;30.33;12.27;;;8.70;99.90;;;;;;5112314;28;20347;-68
2022/12/25 06:34:57;;;;;;;33.63;12.63;;;8.70;99.90;;;;;;5109906;28;20577;-68
2022/12/25 06:37:24;;;;;;;30.73;13.10;;;8.60;99.90;;;;;;5088593;28;20705;-68
2022/12/25 06:39:50;;;;;;;30.50;13.07;;;8.60;99.90;;;;;;5114191;28;20206;-69
2022/12/25 06:42:17;;;;;;;34.73;13.53;;;8.60;99.90;;;;;;5105685;28;20199;-69
2022/12/25 06:44:44;;;;;;;40.70;14.00;;;8.60;99.90;;;;;;5109368;28;20584;-69
2022/12/25 06:47:12;;;;;;;30.33;13.80;;;8.60;99.90;;;;;;5114013;28;20567;-68
2022/12/25 06:49:38;;;;;;;30.27;13.57;;;8.60;99.90;;;;;;5112626;28;20332;-68
2022/12/25 06:52:05;;;;;;;33.50;14.47;;;8.50;99.90;;;;;;5106815;28;20210;-69
2022/12/25 06:54:32;;;;;;;36.93;13.43;;;8.50;99.90;;;;;;5113032;28;20214;-69
2022/12/25 06:56:59;;;;;;;37.03;14.37;;;8.50;99.90;;;;;;5112268;28;20253;-69
2022/12/25 06:59:25;;;;;;;33.67;14.50;;;8.40;99.90;;;;;;5110010;28;20209;-69
2022/12/25 07:01:55;;;;;;;38.73;14.00;;;8.40;99.90;;;;;;5088678;28;20221;-69
2022/12/25 07:04:37;;;;;;;38.87;15.53;;;8.40;99.90;;;;;;5090563;28;20292;-68
2022/12/25 07:07:06;;;;;;;34.93;15.27;;;8.40;99.90;;;;;;5083533;28;20226;-69
2022/12/25 07:09:37;;;;;;;39.03;14.97;;;8.40;99.90;;;;;;5102419;28;20217;-69
2022/12/25 07:12:23;;;;;;;40.57;16.00;;;8.40;99.90;;;;;;5113109;28;20217;-69
2022/12/25 07:14:53;;;;;;;44.70;18.13;;;8.40;99.90;;;;;;5111786;28;20308;-69
2022/12/25 07:17:21;;;;;;;42.37;18.10;;;8.40;99.90;;;;;;5108636;28;20243;-68
2022/12/25 07:19:48;;;;;;;52.97;18.43;;;8.40;99.90;;;;;;5112749;28;20206;-69
2022/12/25 07:22:22;;;;;;;39.27;18.17;;;8.40;99.90;;;;;;5112519;28;20280;-68
2022/12/25 07:24:51;;;;;;;51.00;18.63;;;8.40;99.90;;;;;;5113276;28;20302;-68
2022/12/25 07:27:23;;;;;;;49.27;18.43;;;8.40;99.90;;;;;;5109905;28;20205;-68
2022/12/25 07:29:50;;;;;;;41.10;18.23;;;8.50;99.90;;;;;;5106396;28;20581;-69
2022/12/25 07:32:17;;;;;;;47.07;19.07;;;8.50;99.90;;;;;;5109994;28;20339;-69
2022/12/25 07:34:43;;;;;;;46.93;18.70;;;8.50;99.90;;;;;;5106264;28;20210;-70
2022/12/25 07:37:10;;;;;;;45.53;17.57;;;8.50;99.90;;;;;;5107490;28;20324;-69
2022/12/25 07:39:37;;;;;;;44.63;18.63;;;8.50;99.90;;;;;;5112305;28;20250;-69
2022/12/25 07:42:05;;;;;;;40.23;17.17;;;8.50;99.90;;;;;;5112229;28;20206;-69
2022/12/25 07:44:32;;;;;;;50.33;17.90;;;8.60;99.90;;;;;;5113351;28;20207;-69
2022/12/25 07:46:59;;;;;;;49.83;17.13;;;8.60;99.90;;;;;;5109751;28;20228;-69
2022/12/25 07:49:25;;;;;;;43.63;17.47;;;8.60;99.90;;;;;;5108711;28;20236;-69
2022/12/25 07:51:52;;;;;;;46.93;17.60;;;8.60;99.90;;;;;;5108750;27;20216;-69
2022/12/25 07:54:19;;;;;;;43.53;17.60;;;8.70;99.90;;;;;;5112297;28;20263;-69
2022/12/25 07:56:50;;;;;;;38.43;16.57;;;8.70;99.90;;;;;;5105814;28;20210;-69
2022/12/25 07:59:18;;;;;;;42.00;15.27;;;8.70;99.90;;;;;;5090094;28;20413;-69
2022/12/25 08:01:45;;;;;;;44.00;16.43;;;8.70;99.90;;;;;;5110209;28;20310;-69
2022/12/25 08:04:12;;;;;;;37.37;15.83;;;8.70;99.90;;;;;;5109946;28;20214;-69
2022/12/25 08:06:38;;;;;;;46.43;17.03;;;8.70;99.90;;;;;;5091711;28;20206;-69
2022/12/25 08:09:08;;;;;;;37.17;15.50;;;8.70;99.90;;;;;;5092395;28;20270;-69
2022/12/25 08:11:35;;;;;;;34.57;14.97;;;8.80;99.90;;;;;;5105085;27;20237;-69
2022/12/25 08:14:07;;;;;;;37.97;15.97;;;8.80;99.90;;;;;;5108599;27;20293;-69
2022/12/25 08:16:38;;;;;;;38.07;15.40;;;8.80;99.90;;;;;;5109111;27;20214;-69
2022/12/25 08:19:05;;;;;;;39.13;16.63;;;8.80;99.90;;;;;;5109763;27;20729;-69
2022/12/25 08:21:32;;;;;;;37.50;15.43;;;8.80;99.90;;;;;;5106890;27;20208;-70
2022/12/25 08:23:58;;;;;;;36.30;16.60;;;8.80;99.90;;;;;;5110195;27;20302;-69
2022/12/25 08:26:25;;;;;;;35.80;16.17;;;8.90;99.90;;;;;;5107602;28;20210;-69
2022/12/25 08:28:52;;;;;;;34.83;15.10;;;8.90;99.90;;;;;;5107348;28;20212;-68
2022/12/25 08:31:23;;;;;;;37.57;15.97;;;8.90;99.90;;;;;;5108492;28;20290;-69
2022/12/25 08:33:52;;;;;;;38.83;15.03;;;8.90;99.90;;;;;;5093805;28;20317;-68
2022/12/25 08:36:19;;;;;;;39.90;16.17;;;9.00;99.90;;;;;;5108459;27;20191;-68
2022/12/25 08:38:46;;;;;;;44.67;15.43;;;9.00;99.90;;;;;;5094682;28;20658;-68
2022/12/25 08:41:14;;;;;;;39.70;14.97;;;9.00;99.90;;;;;;5110289;28;20281;-69
2022/12/25 08:43:41;;;;;;;34.13;14.57;;;9.00;99.90;;;;;;5103348;28;20290;-69
2022/12/25 08:46:08;;;;;;;37.30;15.47;;;9.00;99.90;;;;;;5110281;27;20280;-69
2022/12/25 08:48:36;;;;;;;41.63;15.83;;;9.10;99.90;;;;;;5107263;28;20214;-69
2022/12/25 08:51:03;;;;;;;39.13;15.10;;;9.10;99.90;;;;;;5090087;28;20315;-69
2022/12/25 08:53:30;;;;;;;36.17;15.00;;;9.10;99.90;;;;;;5084341;28;20223;-69
2022/12/25 08:55:59;;;;;;;45.03;16.70;;;9.10;99.90;;;;;;5077194;28;20232;-69
2022/12/25 08:58:27;;;;;;;199.80;91.27;;;9.20;99.90;;;;;;5082961;28;20227;-69
2022/12/25 09:01:03;;;;;;;153.40;67.07;;;9.20;99.90;;;;;;5083405;28;20195;-68
2022/12/25 09:03:33;;;;;;;70.87;29.97;;;9.20;99.90;;;;;;5088555;28;20199;-69
2022/12/25 09:06:05;;;;;;;157.27;63.83;;;9.20;99.90;;;;;;5089076;28;20283;-69
2022/12/25 09:08:32;;;;;;;81.07;35.13;;;9.20;99.90;;;;;;5085862;28;20208;-69
2022/12/25 09:11:08;;;;;;;56.50;24.73;;;9.20;99.90;;;;;;5090185;28;20220;-69
2022/12/25 09:13:35;;;;;;;48.20;18.10;;;9.20;99.90;;;;;;5082601;28;20205;-69
2022/12/25 09:16:11;;;;;;;36.83;14.10;;;9.20;99.90;;;;;;5089800;28;20302;-69
2022/12/25 09:18:38;;;;;;;36.83;16.47;;;9.20;99.90;;;;;;5083763;28;20310;-69
2022/12/25 09:21:08;;;;;;;40.47;16.50;;;9.20;99.90;;;;;;5087035;28;20238;-68
2022/12/25 09:23:35;;;;;;;26.77;14.40;;;9.20;99.90;;;;;;5088729;28;20266;-69
2022/12/25 09:26:04;;;;;;;31.27;14.73;;;9.20;99.90;;;;;;5072312;28;20230;-68
2022/12/25 09:28:31;;;;;;;33.13;13.47;;;9.30;99.90;;;;;;5088878;28;20277;-68
2022/12/25 09:30:58;;;;;;;28.37;13.93;;;9.30;99.90;;;;;;5089717;28;20211;-69
2022/12/25 09:33:25;;;;;;;28.43;13.27;;;9.30;99.90;;;;;;5083556;28;20228;-68
2022/12/25 09:36:01;;;;;;;31.40;13.07;;;9.30;99.90;;;;;;5087055;28;20250;-69
2022/12/25 09:38:28;;;;;;;29.70;12.93;;;9.30;99.90;;;;;;5068166;28;20253;-69
2022/12/25 09:41:01;;;;;;;32.00;13.20;;;9.30;99.90;;;;;;5070743;28;20208;-69
2022/12/25 09:43:32;;;;;;;33.90;13.00;;;9.40;99.90;;;;;;5086972;28;20200;-69
2022/12/25 09:46:01;;;;;;;29.23;12.67;;;9.30;99.90;;;;;;5084346;28;20787;-69
2022/12/25 09:48:31;;;;;;;29.27;13.93;;;9.40;99.90;;;;;;5088371;28;20250;-69
2022/12/25 09:51:15;;;;;;;34.67;13.60;;;9.40;99.90;;;;;;5088785;28;20349;-68
2022/12/25 09:53:54;;;;;;;26.20;12.67;;;9.40;99.90;;;;;;5084520;28;20196;-69
2022/12/25 09:56:24;;;;;;;31.73;13.20;;;9.40;99.90;;;;;;5088328;28;20294;-70
2022/12/25 09:58:52;;;;;;;28.47;12.90;;;9.40;99.90;;;;;;5072328;28;20310;-69
2022/12/25 10:01:38;;;;;;;24.23;12.63;;;9.40;99.90;;;;;;5090751;28;20211;-69
2022/12/25 10:04:42;;;;;;;27.20;14.20;;;9.50;99.90;;;;;;5088088;28;20195;-69
2022/12/25 10:07:15;;;;;;;31.43;13.17;;;9.40;99.90;;;;;;5086676;28;20230;-68
2022/12/25 10:10:05;;;;;;;25.87;12.67;;;9.40;99.90;;;;;;5085288;28;20287;-69
2022/12/25 10:12:51;;;;;;;27.50;13.10;;;9.50;99.90;;;;;;5089994;28;20661;-70
2022/12/25 10:15:31;;;;;;;27.63;13.27;;;9.50;99.90;;;;;;5086944;28;20211;-70
2022/12/25 10:18:03;;;;;;;30.87;12.60;;;9.50;99.90;;;;;;5089211;28;20264;-70
2022/12/25 10:20:56;;;;;;;34.70;15.50;;;9.50;99.90;;;;;;5089446;28;20310;-70
2022/12/25 10:23:32;;;;;;;28.60;14.60;;;9.50;99.90;;;;;;5088702;28;20283;-70
2022/12/25 10:25:59;;;;;;;30.10;15.47;;;9.50;99.90;;;;;;5089587;28;20754;-70
2022/12/25 10:28:37;;;;;;;27.33;13.33;;;9.50;99.90;;;;;;5072480;28;20303;-70
2022/12/25 10:31:19;;;;;;;30.13;13.47;;;9.50;99.90;;;;;;5089637;28;20226;-69
2022/12/25 10:33:48;;;;;;;28.63;13.43;;;9.40;99.90;;;;;;5088221;28;20257;-68
2022/12/25 10:36:19;;;;;;;32.40;13.50;;;9.50;99.90;;;;;;5087686;28;20203;-69
2022/12/25 10:38:47;;;;;;;27.93;13.60;;;9.40;99.90;;;;;;5088772;28;20227;-69
2022/12/25 10:41:34;;;;;;;30.80;14.10;;;9.40;99.90;;;;;;5089477;28;20204;-69
2022/12/25 10:44:12;;;;;;;33.17;13.60;;;9.50;99.90;;;;;;5084496;28;20299;-70
2022/12/25 10:46:39;;;;;;;37.40;14.27;;;9.50;99.90;;;;;;5087332;28;20297;-69
2022/12/25 10:49:13;;;;;;;29.40;14.03;;;9.50;99.90;;;;;;5089883;28;20567;-70
2022/12/25 10:51:40;;;;;;;31.27;15.40;;;9.50;99.90;;;;;;5086149;28;20562;-70
2022/12/25 10:54:27;;;;;;;33.00;14.23;;;9.50;99.90;;;;;;5085478;28;20204;-70
2022/12/25 10:56:56;;;;;;;29.60;13.37;;;9.50;99.90;;;;;;5069646;28;20203;-70
2022/12/25 10:59:25;;;;;;;31.20;15.33;;;9.50;99.90;;;;;;5089259;28;20266;-70
2022/12/25 11:01:52;;;;;;;38.90;15.17;;;9.50;99.90;;;;;;5089666;28;20215;-71
2022/12/25 11:04:27;;;;;;;26.17;14.50;;;9.50;99.90;;;;;;5086962;28;20216;-70
2022/12/25 11:07:01;;;;;;;34.37;15.00;;;9.50;99.90;;;;;;5089113;28;20303;-69
2022/12/25 11:09:28;;;;;;;34.37;14.87;;;9.60;99.90;;;;;;5089537;28;20234;-71
2022/12/25 11:11:55;;;;;;;30.67;15.17;;;9.60;99.90;;;;;;5089362;28;20258;-70
2022/12/25 11:14:22;;;;;;;27.63;13.90;;;9.60;99.90;;;;;;5090865;28;20254;-70
2022/12/25 11:16:49;;;;;;;39.33;14.80;;;9.60;99.90;;;;;;5093125;28;20574;-69
2022/12/25 11:19:26;;;;;;;34.47;14.53;;;9.50;99.90;;;;;;5093111;28;20286;-69
2022/12/25 11:21:58;;;;;;;33.23;13.70;;;9.50;99.90;;;;;;5060514;28;20337;-70
2022/12/25 11:24:28;;;;;;;30.07;14.30;;;9.60;99.90;;;;;;5093140;28;20242;-70
2022/12/25 11:26:57;;;;;;;32.77;14.40;;;9.50;99.90;;;;;;5093150;28;20660;-70
2022/12/25 11:29:30;;;;;;;31.77;14.00;;;9.60;99.90;;;;;;5092897;28;20215;-70
2022/12/25 11:31:59;;;;;;;28.40;13.33;;;9.50;99.90;;;;;;5093436;28;20215;-70
2022/12/25 11:34:48;;;;;;;28.00;13.63;;;9.50;99.90;;;;;;5092379;28;20663;-70
2022/12/25 11:37:18;;;;;;;27.00;13.97;;;9.50;99.90;;;;;;5089960;28;20288;-69
2022/12/25 11:39:45;;;;;;;28.03;15.23;;;9.50;99.90;;;;;;5089820;28;20231;-70
2022/12/25 11:42:22;;;;;;;35.80;15.73;;;9.50;99.90;;;;;;5093148;28;20295;-70
2022/12/25 11:45:06;;;;;;;31.80;15.73;;;9.50;99.90;;;;;;5088184;28;20200;-70
2022/12/25 11:47:53;;;;;;;28.77;14.63;;;9.50;99.90;;;;;;5092137;28;20247;-70
2022/12/25 11:50:37;;;;;;;34.53;15.00;;;9.50;99.90;;;;;;5102999;28;20273;-70
2022/12/25 11:53:18;;;;;;;31.57;15.13;;;9.50;99.90;;;;;;5110455;28;20279;-70
2022/12/25 11:55:57;;;;;;;30.90;15.10;;;9.50;99.90;;;;;;5110601;28;20203;-70
2022/12/25 11:58:34;;;;;;;33.67;14.60;;;9.50;99.90;;;;;;5092423;28;20203;-70
2022/12/25 12:01:05;;;;;;;34.00;15.23;;;9.60;99.90;;;;;;5112922;28;20334;-70
2022/12/25 12:03:38;;;;;;;29.40;14.93;;;9.50;99.90;;;;;;5112351;28;20199;-70
2022/12/25 12:06:40;;;;;;;30.13;16.07;;;9.60;99.90;;;;;;5109999;28;20302;-70
2022/12/25 12:09:43;;;;;;;35.50;16.17;;;9.60;99.90;;;;;;5111805;28;20290;-70
2022/12/25 12:12:33;;;;;;;35.23;14.90;;;9.60;99.90;;;;;;5111381;28;20645;-70
2022/12/25 12:15:28;;;;;;;33.77;14.73;;;9.60;99.90;;;;;;5112699;28;20286;-70
2022/12/25 12:18:06;;;;;;;27.87;14.00;;;9.60;99.90;;;;;;5112731;28;20264;-70
2022/12/25 12:20:34;;;;;;;28.07;14.87;;;9.70;99.90;;;;;;5111253;28;20296;-70
2022/12/25 12:23:10;;;;;;;31.93;14.33;;;9.70;99.90;;;;;;5112508;28;20298;-70
2022/12/25 12:25:41;;;;;;;30.20;14.73;;;9.70;99.90;;;;;;5111000;28;20217;-70
2022/12/25 12:28:23;;;;;;;28.13;15.53;;;9.70;99.90;;;;;;5112366;28;20678;-69
2022/12/25 12:30:57;;;;;;;33.30;17.03;;;9.70;99.90;;;;;;5110710;28;20289;-71
2022/12/25 12:33:29;;;;;;;40.70;19.70;;;9.70;99.90;;;;;;5109168;28;20286;-71
2022/12/25 12:35:56;;;;;;;37.77;18.47;;;9.80;99.90;;;;;;5094268;28;20288;-71
2022/12/25 12:38:24;;;;;;;35.73;15.77;;;9.80;99.90;;;;;;5110837;28;20211;-70
2022/12/25 12:41:03;;;;;;;28.43;14.77;;;9.80;99.90;;;;;;5112187;28;20279;-70
2022/12/25 12:43:43;;;;;;;29.80;14.47;;;9.90;99.90;;;;;;5111318;28;20595;-70
2022/12/25 12:46:26;;;;;;;35.00;15.43;;;9.90;99.90;;;;;;5109225;28;20223;-70
2022/12/25 12:49:18;;;;;;;29.23;14.90;;;9.80;99.90;;;;;;5109754;28;20557;-69
2022/12/25 12:51:45;;;;;;;35.67;15.97;;;9.80;99.90;;;;;;5111043;28;20207;-70
2022/12/25 12:54:22;;;;;;;27.50;14.97;;;9.80;99.90;;;;;;5111857;28;20236;-69
2022/12/25 12:56:57;;;;;;;31.57;16.97;;;9.80;99.90;;;;;;5093580;28;20298;-70
2022/12/25 12:59:26;;;;;;;33.17;16.23;;;9.80;99.90;;;;;;5111518;28;20231;-70
2022/12/25 13:01:55;;;;;;;33.80;15.70;;;9.80;99.90;;;;;;5105259;28;20216;-71
2022/12/25 13:04:41;;;;;;;32.13;16.97;;;9.90;99.90;;;;;;5093539;28;20276;-69
2022/12/25 13:07:50;;;;;;;37.60;18.17;;;9.90;99.90;;;;;;5073213;28;20234;-70
2022/12/25 13:10:30;;;;;;;47.83;18.63;;;9.90;99.90;;;;;;5025794;28;20485;-70
2022/12/25 13:13:01;;;;;;;34.50;17.27;;;9.90;99.90;;;;;;5099018;28;20248;-70
2022/12/25 13:15:32;;;;;;;40.37;17.47;;;9.80;99.90;;;;;;5091479;28;20219;-70
2022/12/25 13:18:10;;;;;;;39.47;19.37;;;9.90;99.90;;;;;;5092912;28;20214;-70
2022/12/25 13:20:53;;;;;;;36.23;17.30;;;9.90;99.90;;;;;;5092578;28;20276;-70
2022/12/25 13:23:32;;;;;;;36.50;18.67;;;9.90;99.90;;;;;;5109703;28;20207;-70
2022/12/25 13:26:16;;;;;;;42.73;18.63;;;9.90;99.90;;;;;;5107812;28;20211;-70
2022/12/25 13:28:46;;;;;;;41.23;19.33;;;9.90;99.90;;;;;;5107808;28;20568;-69
2022/12/25 13:31:12;;;;;;;37.37;18.27;;;9.90;99.90;;;;;;5110774;28;20223;-70
2022/12/25 13:33:44;;;;;;;38.87;19.40;;;9.90;99.90;;;;;;5091454;28;20631;-71
2022/12/25 13:36:12;;;;;;;41.37;18.33;;;9.90;99.90;;;;;;5110965;28;20207;-70
2022/12/25 13:38:44;;;;;;;38.30;19.60;;;9.90;99.90;;;;;;5091209;28;20275;-69
2022/12/25 13:44:13;;;;;;;37.47;18.73;;;10.00;99.90;;;;;;5110593;28;20586;-70
2022/12/25 13:46:40;;;;;;;46.67;21.73;;;10.00;99.90;;;;;;5109805;28;20211;-70
2022/12/25 13:49:16;;;;;;;43.47;22.70;;;10.10;99.90;;;;;;5106842;28;20625;-70
2022/12/25 13:51:43;;;;;;;39.63;22.07;;;10.00;99.90;;;;;;5109958;28;20290;-70
2022/12/25 13:54:13;;;;;;;39.00;19.67;;;10.00;99.90;;;;;;5092381;28;20229;-70
2022/12/25 13:56:52;;;;;;;49.30;19.97;;;10.00;99.90;;;;;;5091450;28;20748;-70
2022/12/25 13:59:21;;;;;;;48.87;21.00;;;10.00;99.90;;;;;;5110517;28;20245;-70
2022/12/25 14:01:50;;;;;;;46.50;21.87;;;10.00;99.90;;;;;;5085832;28;20656;-69
2022/12/25 14:04:22;;;;;;;45.00;21.27;;;10.00;99.90;;;;;;5110515;28;20239;-69
2022/12/25 14:06:51;;;;;;;45.10;21.20;;;10.00;99.90;;;;;;5107457;28;20631;-69
2022/12/25 14:09:18;;;;;;;43.53;20.50;;;10.00;99.90;;;;;;5110639;28;20209;-69
2022/12/25 14:11:50;;;;;;;45.53;21.63;;;10.00;99.90;;;;;;5092242;28;20203;-70
2022/12/25 14:14:21;;;;;;;48.40;21.07;;;10.00;99.90;;;;;;5110197;28;20663;-70
2022/12/25 14:16:52;;;;;;;90.10;38.60;;;10.00;99.90;;;;;;5106079;28;20214;-70
2022/12/25 14:19:26;;;;;;;69.70;27.03;;;10.00;99.90;;;;;;5110631;28;20264;-70
2022/12/25 14:22:09;;;;;;;52.83;23.73;;;10.00;99.90;;;;;;5107518;28;20257;-71
2022/12/25 14:24:38;;;;;;;47.43;21.00;;;10.00;99.90;;;;;;5110673;28;20226;-70
2022/12/25 14:27:16;;;;;;;48.97;20.97;;;10.00;99.90;;;;;;5110286;28;20354;-71
2022/12/25 14:29:45;;;;;;;47.80;19.73;;;10.00;99.90;;;;;;5108048;28;20206;-71
2022/12/25 14:32:21;;;;;;;56.47;22.50;;;10.00;99.90;;;;;;5106748;28;20215;-71
2022/12/25 14:34:52;;;;;;;54.20;22.83;;;10.00;99.90;;;;;;5108799;28;20298;-70
2022/12/25 14:37:22;;;;;;;57.77;22.93;;;10.00;99.90;;;;;;5110214;28;20233;-70
2022/12/25 14:40:20;;;;;;;44.90;21.53;;;10.00;99.90;;;;;;5106919;28;20307;-69
2022/12/25 14:42:55;;;;;;;50.77;22.70;;;10.00;99.90;;;;;;5091850;28;20238;-70
2022/12/25 14:45:27;;;;;;;50.87;22.10;;;10.00;99.90;;;;;;5110080;28;20187;-69
2022/12/25 14:48:01;;;;;;;48.30;23.63;;;9.90;99.90;;;;;;5110147;28;20221;-69